Time;durP1;ratioP1;P1;durP2;ratioP2;P2;SDS_P1;SDS_P2;PMS_P1;PMS_P2;Temp;Humidity;BMP_temperature;BMP_pressure;BME280_temperature;BME280_humidity;BME280_pressure;Samples;Min_cycle;Max_cycle;Signal;HPM_P1;HPM_P2
2024/02/08 00:02:28;;;;;;;11.50;4.93;;;14.80;76.80;;;;;;4089514;28;20074;-53
2024/02/08 00:05:09;;;;;;;10.43;4.53;;;14.80;76.80;;;;;;4077360;28;20531;-54
2024/02/08 00:07:50;;;;;;;8.32;4.07;;;14.80;76.90;;;;;;4080639;28;20066;-51
2024/02/08 00:10:32;;;;;;;8.20;4.28;;;14.80;77.00;;;;;;4087672;28;20062;-53
2024/02/08 00:13:14;;;;;;;7.65;4.43;;;14.80;77.10;;;;;;4088687;28;20074;-53
2024/02/08 00:15:55;;;;;;;7.57;4.25;;;14.70;77.10;;;;;;4073032;29;20495;-56
2024/02/08 00:18:38;;;;;;;8.88;4.25;;;14.70;77.10;;;;;;4071778;29;20064;-52
2024/02/08 00:21:19;;;;;;;14.80;4.97;;;14.70;77.20;;;;;;4058190;29;20075;-54
2024/02/08 00:24:00;;;;;;;20.70;4.90;;;14.70;77.20;;;;;;4057885;29;20106;-53
2024/02/08 00:26:42;;;;;;;13.25;5.43;;;14.70;77.40;;;;;;4058046;29;20055;-51
2024/02/08 00:29:25;;;;;;;9.40;5.07;;;14.70;77.40;;;;;;4069582;29;20145;-52
2024/02/08 00:32:06;;;;;;;10.32;4.95;;;14.60;77.40;;;;;;4067419;29;20070;-53
2024/02/08 00:34:48;;;;;;;10.15;4.13;;;14.60;77.30;;;;;;4073491;29;20094;-52
2024/02/08 00:37:31;;;;;;;7.70;5.10;;;14.60;77.30;;;;;;4073570;29;20130;-51
2024/02/08 00:40:12;;;;;;;7.60;3.72;;;14.60;77.30;;;;;;4073547;29;20070;-52
2024/02/08 00:42:54;;;;;;;7.28;4.18;;;14.60;77.30;;;;;;4073277;29;20086;-51
2024/02/08 00:45:36;;;;;;;11.82;4.50;;;14.50;77.50;;;;;;4073432;29;20063;-53
2024/02/08 00:48:17;;;;;;;11.18;4.07;;;14.50;77.40;;;;;;4072707;29;20524;-52
2024/02/08 00:50:59;;;;;;;11.43;4.15;;;14.50;77.50;;;;;;4072936;29;20110;-50
2024/02/08 00:53:42;;;;;;;10.02;4.43;;;14.50;77.50;;;;;;4073033;29;20059;-52
2024/02/08 00:56:23;;;;;;;14.30;3.88;;;14.50;77.60;;;;;;4072907;29;20571;-54
2024/02/08 00:59:04;;;;;;;8.65;4.25;;;14.50;77.60;;;;;;4072668;29;20050;-53
2024/02/08 01:01:47;;;;;;;8.30;4.07;;;14.50;77.60;;;;;;4061478;29;20058;-55
2024/02/08 01:04:27;;;;;;;13.80;4.32;;;14.50;77.80;;;;;;4060772;29;20117;-54
2024/02/08 01:07:08;;;;;;;12.57;5.22;;;14.40;77.70;;;;;;4073083;29;20091;-53
2024/02/08 01:09:49;;;;;;;9.00;4.03;;;14.40;77.80;;;;;;4073282;29;20063;-53
2024/02/08 01:12:31;;;;;;;8.93;3.83;;;14.40;77.80;;;;;;4073082;29;20534;-50
2024/02/08 01:15:13;;;;;;;;;;;14.40;77.90;;;;;;4073126;29;20190;-51
2024/02/08 01:17:56;;;;;;;12.05;3.42;;;14.40;77.90;;;;;;4086676;28;19977;-54
2024/02/08 01:20:37;;;;;;;9.00;3.70;;;14.40;79.60;;;;;;4088466;28;20050;-55
2024/02/08 01:23:19;;;;;;;7.72;3.20;;;14.40;78.40;;;;;;4060715;29;20047;-55
2024/02/08 01:26:03;;;;;;;10.90;3.13;;;14.40;78.40;;;;;;4076998;28;20159;-53
2024/02/08 01:28:43;;;;;;;8.43;3.58;;;14.40;78.40;;;;;;4087716;28;20463;-52
2024/02/08 01:31:25;;;;;;;10.45;3.75;;;14.40;78.60;;;;;;4088068;28;20054;-54
2024/02/08 01:34:08;;;;;;;7.88;4.13;;;14.50;79.50;;;;;;4087853;28;20412;-54
2024/02/08 01:36:49;;;;;;;10.35;3.88;;;14.60;79.40;;;;;;4088289;28;20046;-54
2024/02/08 01:39:30;;;;;;;8.77;4.13;;;14.70;79.00;;;;;;4072777;29;20059;-56
2024/02/08 01:42:13;;;;;;;12.60;4.07;;;14.80;78.70;;;;;;4062651;29;20063;-51
2024/02/08 01:45:19;;;;;;;7.55;3.60;;;14.90;78.40;;;;;;4063813;29;20050;-52
2024/02/08 01:48:02;;;;;;;10.18;3.67;;;14.90;77.80;;;;;;4074354;29;20066;-55
2024/02/08 01:50:49;;;;;;;10.52;4.40;;;15.00;77.70;;;;;;4086516;28;20061;-50
2024/02/08 01:53:31;;;;;;;10.18;3.40;;;15.00;77.40;;;;;;4088589;28;20168;-51
2024/02/08 01:56:13;;;;;;;9.77;3.50;;;15.10;77.40;;;;;;4075481;29;20138;-53
2024/02/08 01:58:58;;;;;;;7.30;3.60;;;15.10;77.30;;;;;;4066369;28;20074;-42
2024/02/08 02:01:45;;;;;;;12.10;4.65;;;15.10;77.10;;;;;;4079304;28;20242;-42
2024/02/08 02:04:27;;;;;;;10.20;3.92;;;15.20;76.70;;;;;;4091135;28;20197;-42
2024/02/08 02:07:10;;;;;;;7.43;3.92;;;15.30;76.50;;;;;;4091560;28;20058;-42
2024/02/08 02:09:50;;;;;;;9.77;3.05;;;15.30;76.30;;;;;;4091702;28;20058;-44
2024/02/08 02:12:32;;;;;;;11.32;3.25;;;15.30;76.10;;;;;;4074999;29;20093;-43
2024/02/08 02:15:14;;;;;;;8.88;3.22;;;15.30;76.00;;;;;;4075016;29;20058;-43
2024/02/08 02:17:54;;;;;;;6.68;3.08;;;15.30;75.90;;;;;;4074895;29;20428;-43
2024/02/08 02:20:36;;;;;;;11.75;5.22;;;15.30;75.90;;;;;;4074687;29;20070;-43
2024/02/08 02:23:18;;;;;;;10.02;3.15;;;15.30;76.10;;;;;;4077554;28;20062;-42
2024/02/08 02:26:00;;;;;;;15.88;3.30;;;15.40;76.10;;;;;;4090821;28;20059;-42
2024/02/08 02:28:42;;;;;;;6.60;2.60;;;15.40;75.80;;;;;;4091019;28;20086;-42
2024/02/08 02:31:24;;;;;;;12.48;3.20;;;15.40;75.60;;;;;;4078309;28;20058;-42
2024/02/08 02:34:06;;;;;;;11.13;3.22;;;15.40;75.50;;;;;;4079043;28;20698;-44
2024/02/08 02:36:51;;;;;;;8.57;3.25;;;15.40;75.30;;;;;;4074491;29;20055;-42
2024/02/08 02:39:34;;;;;;;10.43;3.35;;;15.40;75.50;;;;;;4085258;28;20518;-43
2024/02/08 02:42:15;;;;;;;8.52;2.88;;;15.40;75.50;;;;;;4090330;28;20066;-42
2024/02/08 02:44:56;;;;;;;6.07;2.58;;;15.40;75.50;;;;;;4090484;28;20107;-43
2024/02/08 02:47:37;;;;;;;6.32;2.90;;;15.50;75.40;;;;;;4084838;28;20127;-43
2024/02/08 02:50:19;;;;;;;;;;;15.50;75.40;;;;;;4091052;28;20109;-44
2024/02/08 02:53:00;;;;;;;7.32;2.92;;;15.50;75.40;;;;;;4089401;28;20016;-42
2024/02/08 02:55:42;;;;;;;7.15;2.97;;;15.60;75.30;;;;;;4090981;28;20102;-42
2024/02/08 02:58:23;;;;;;;7.95;2.58;;;15.60;74.90;;;;;;4091076;28;20385;-41
2024/02/08 03:01:05;;;;;;;7.30;2.40;;;15.70;74.60;;;;;;4077934;28;20202;-42
2024/02/08 03:03:47;;;;;;;8.35;2.85;;;15.70;74.40;;;;;;4090456;28;20747;-53
2024/02/08 03:06:28;;;;;;;7.43;2.70;;;15.70;74.40;;;;;;4074738;29;20194;-54
2024/02/08 03:09:15;;;;;;;6.00;2.45;;;15.70;74.30;;;;;;4074988;29;20055;-54
2024/02/08 03:11:57;;;;;;;7.63;2.83;;;15.70;74.30;;;;;;4081860;29;20055;-54
2024/02/08 03:14:39;;;;;;;9.75;2.72;;;15.80;74.20;;;;;;4090507;28;20061;-51
2024/02/08 03:17:22;;;;;;;7.65;2.83;;;15.80;74.10;;;;;;4089738;28;20109;-51
2024/02/08 03:20:04;;;;;;;8.82;2.83;;;15.80;74.80;;;;;;4090200;28;20257;-51
2024/02/08 03:22:46;;;;;;;7.22;3.05;;;15.80;73.80;;;;;;4089986;28;20058;-52
2024/02/08 03:25:27;;;;;;;9.32;2.90;;;15.80;73.80;;;;;;4073936;29;20057;-52
2024/02/08 03:28:10;;;;;;;8.25;2.45;;;15.80;73.80;;;;;;4074324;29;20393;-54
2024/02/08 03:30:52;;;;;;;9.02;2.83;;;15.80;73.80;;;;;;4087929;28;20102;-51
2024/02/08 03:33:34;;;;;;;7.95;2.53;;;15.80;73.70;;;;;;4090244;28;20078;-52
2024/02/08 03:36:15;;;;;;;;;;;15.80;74.70;;;;;;4090076;28;20492;-52
2024/02/08 03:38:56;;;;;;;5.95;2.05;;;15.80;73.90;;;;;;4089585;28;20015;-53
2024/02/08 03:41:37;;;;;;;6.88;2.33;;;15.80;74.00;;;;;;4089396;28;20468;-54
2024/02/08 03:44:21;;;;;;;7.18;2.90;;;15.90;73.80;;;;;;4089748;28;20191;-51
2024/02/08 03:47:04;;;;;;;4.88;2.60;;;15.90;73.60;;;;;;4078090;28;20049;-52
2024/02/08 03:49:51;;;;;;;4.38;2.17;;;15.90;73.60;;;;;;4080767;28;20074;-50
2024/02/08 03:52:32;;;;;;;7.50;2.53;;;15.90;73.50;;;;;;4089426;28;20571;-50
2024/02/08 03:55:16;;;;;;;10.57;2.85;;;15.90;73.50;;;;;;4089434;28;20066;-51
2024/02/08 03:58:00;;;;;;;9.52;3.35;;;15.90;73.60;;;;;;4089465;28;20156;-52
2024/02/08 04:00:44;;;;;;;6.07;2.17;;;15.90;73.60;;;;;;4089283;28;20105;-50
2024/02/08 04:03:43;;;;;;;5.60;2.17;;;15.80;73.60;;;;;;4089012;28;20109;-53
2024/02/08 04:06:37;;;;;;;4.90;1.92;;;15.80;73.60;;;;;;4088009;28;20062;-52
2024/02/08 04:09:33;;;;;;;8.65;2.65;;;15.80;73.80;;;;;;4087737;28;20054;-54
2024/02/08 04:54:09;;;;;;;7.75;2.28;;;16.00;72.70;;;;;;4087702;28;20062;-44
2024/02/08 04:56:50;;;;;;;5.97;2.45;;;16.00;72.70;;;;;;4088508;28;20444;-43
2024/02/08 04:59:32;;;;;;;4.72;2.03;;;16.00;72.60;;;;;;4072604;29;20051;-42
2024/02/08 05:02:13;;;;;;;5.95;2.38;;;16.00;72.80;;;;;;4068175;29;20152;-43
2024/02/08 05:04:55;;;;;;;4.25;2.03;;;15.90;73.10;;;;;;4087545;28;20054;-42
2024/02/08 05:07:37;;;;;;;8.77;2.33;;;16.00;73.00;;;;;;4088583;28;20055;-43
2024/02/08 05:10:18;;;;;;;8.23;2.58;;;16.00;72.90;;;;;;4082179;28;20062;-42
2024/02/08 05:13:04;;;;;;;8.68;2.45;;;15.90;72.90;;;;;;4088693;28;20116;-42
2024/02/08 05:15:46;;;;;;;9.23;2.05;;;15.90;73.10;;;;;;4088271;28;20182;-42
2024/02/08 05:18:28;;;;;;;5.78;2.00;;;15.90;73.10;;;;;;4072405;29;20075;-43
2024/02/08 05:21:11;;;;;;;7.75;2.13;;;15.90;72.80;;;;;;4062045;29;20110;-43
2024/02/08 05:23:53;;;;;;;5.95;2.47;;;16.00;72.80;;;;;;4089218;28;20117;-44
2024/02/08 05:26:35;;;;;;;10.15;2.50;;;15.90;72.80;;;;;;4088595;28;20109;-42
2024/02/08 05:29:19;;;;;;;;;;;15.90;73.00;;;;;;4076792;28;20512;-41
2024/02/08 05:32:01;;;;;;;5.55;2.40;;;15.90;73.10;;;;;;4072515;29;19934;-45
2024/02/08 05:34:42;;;;;;;5.03;2.88;;;16.00;72.90;;;;;;4084560;28;20525;-42
2024/02/08 05:37:25;;;;;;;7.22;2.70;;;16.10;72.50;;;;;;4087543;28;20062;-44
2024/02/08 05:40:14;;;;;;;5.28;2.40;;;16.10;72.20;;;;;;4087732;28;20851;-41
2024/02/08 05:42:55;;;;;;;6.38;2.83;;;16.20;72.10;;;;;;4082293;28;20179;-41
2024/02/08 05:45:36;;;;;;;9.45;3.28;;;16.20;71.90;;;;;;4076398;28;20086;-43
2024/02/08 05:48:17;;;;;;;7.18;3.20;;;16.20;71.70;;;;;;4088014;28;20535;-41
2024/02/08 05:51:02;;;;;;;11.18;2.78;;;16.20;71.60;;;;;;4081429;28;20062;-42
2024/02/08 05:53:43;;;;;;;5.70;2.25;;;16.20;71.50;;;;;;4087893;28;20161;-43
2024/02/08 05:56:26;;;;;;;6.13;1.90;;;16.20;71.50;;;;;;4088792;28;20098;-42
2024/02/08 05:59:08;;;;;;;10.23;2.50;;;16.20;72.10;;;;;;4087582;28;20090;-42
2024/02/08 06:01:54;;;;;;;10.52;2.92;;;16.20;71.80;;;;;;4088087;28;20483;-41
2024/02/08 06:04:35;;;;;;;5.68;2.63;;;16.20;72.00;;;;;;4088151;28;20521;-43
2024/02/08 06:07:18;;;;;;;5.93;3.35;;;16.30;71.80;;;;;;4087843;28;20066;-43
2024/02/08 06:10:13;;;;;;;6.22;3.03;;;16.40;71.30;;;;;;4075988;28;20098;-43
2024/02/08 06:12:59;;;;;;;8.65;3.42;;;16.40;71.30;;;;;;4083653;28;20055;-42
2024/02/08 06:15:43;;;;;;;8.23;2.70;;;16.40;71.00;;;;;;4072514;29;20199;-43
2024/02/08 06:18:30;;;;;;;10.38;3.00;;;16.50;70.90;;;;;;4085093;28;20194;-43
2024/02/08 06:21:13;;;;;;;7.10;3.90;;;16.50;70.60;;;;;;4099431;28;20074;-41
2024/02/08 06:24:04;;;;;;;12.70;3.88;;;16.40;70.50;;;;;;4082105;28;20054;-41
2024/02/08 06:26:44;;;;;;;8.10;3.03;;;16.40;70.40;;;;;;4071858;29;20082;-42
2024/02/08 06:29:38;;;;;;;12.68;3.00;;;16.30;70.60;;;;;;4070366;29;20062;-41
2024/02/08 06:32:34;;;;;;;9.90;2.90;;;16.30;70.80;;;;;;4074022;29;20546;-42
2024/02/08 06:35:19;;;;;;;8.95;2.47;;;16.30;70.90;;;;;;4081687;28;20077;-43
2024/02/08 06:38:03;;;;;;;8.63;2.70;;;16.30;70.80;;;;;;4079684;29;20416;-44
2024/02/08 06:40:50;;;;;;;7.40;2.33;;;16.30;70.80;;;;;;4089085;28;20058;-43
2024/02/08 06:43:56;;;;;;;7.30;2.90;;;16.40;70.90;;;;;;4078002;28;20190;-45
2024/02/08 06:46:47;;;;;;;9.00;2.78;;;16.40;71.10;;;;;;4089294;28;20105;-45
2024/02/08 07:37:25;;;;;;;6.90;3.03;;;15.90;71.90;;;;;;4076976;28;20094;-44
2024/02/08 07:40:24;;;;;;;9.88;3.40;;;15.90;71.80;;;;;;4089126;28;20058;-44
2024/02/08 07:43:19;;;;;;;7.55;2.70;;;16.00;71.80;;;;;;4072893;29;20711;-49
2024/02/08 07:46:04;;;;;;;3.38;2.45;;;16.00;71.80;;;;;;4072243;29;20142;-50
2024/02/08 07:48:45;;;;;;;9.35;2.70;;;16.10;71.50;;;;;;4073220;29;20058;-49
2024/02/08 07:51:28;;;;;;;6.40;2.80;;;16.10;71.20;;;;;;4074263;29;20059;-50
2024/02/08 07:54:20;;;;;;;9.80;2.92;;;16.20;71.20;;;;;;4073825;29;20508;-46
2024/02/08 07:57:01;;;;;;;6.25;2.40;;;16.20;70.80;;;;;;4073425;29;20062;-44
2024/02/08 07:59:42;;;;;;;6.35;2.75;;;16.30;70.50;;;;;;4077956;28;20054;-44
2024/02/08 08:02:23;;;;;;;4.78;2.60;;;16.30;70.10;;;;;;4089628;28;20179;-44
2024/02/08 08:05:14;;;;;;;;;;;16.30;70.00;;;;;;4089318;28;20062;-43
2024/02/08 08:07:59;;;;;;;7.53;2.80;;;16.40;70.00;;;;;;4088288;28;19945;-49
2024/02/08 08:10:46;;;;;;;5.82;3.08;;;16.40;69.90;;;;;;4088863;28;20047;-52
2024/02/08 08:17:07;;;;;;;8.40;3.22;;;16.40;69.40;;;;;;4082118;28;20053;-49
2024/02/08 08:19:44;;;;;;;5.72;2.75;;;16.50;69.50;;;;;;4076026;28;20089;-44
2024/02/08 08:25:59;;;;;;;7.13;2.65;;;16.50;69.00;;;;;;4075816;28;20070;-49
2024/02/08 08:28:51;;;;;;;7.10;2.25;;;16.50;69.00;;;;;;4087611;28;20102;-44
2024/02/08 08:31:37;;;;;;;5.55;2.83;;;16.60;69.00;;;;;;4088307;28;20054;-45
2024/02/08 08:37:39;;;;;;;5.25;2.47;;;16.70;68.30;;;;;;4078412;28;20070;-43
2024/02/08 08:40:25;;;;;;;8.15;3.10;;;16.60;68.20;;;;;;4087893;28;20066;-52
2024/02/08 08:43:10;;;;;;;5.95;2.45;;;16.70;68.40;;;;;;4088087;28;20062;-50
2024/02/08 08:45:59;;;;;;;6.80;2.60;;;16.60;68.30;;;;;;4088411;28;20050;-50
2024/02/08 08:48:50;;;;;;;6.93;2.40;;;16.60;68.30;;;;;;4088714;28;20059;-49
2024/02/08 08:51:32;;;;;;;;;;;16.50;68.50;;;;;;4087849;28;20134;-48
2024/02/08 08:54:25;;;;;;;7.30;2.90;;;16.50;68.70;;;;;;4086794;28;19961;-50
2024/02/08 08:57:12;;;;;;;9.32;3.05;;;16.50;69.00;;;;;;4086636;28;20074;-49
2024/02/08 08:59:56;;;;;;;7.85;3.17;;;16.40;68.90;;;;;;4098830;28;20190;-50
2024/02/08 09:02:40;;;;;;;6.50;2.58;;;16.30;69.10;;;;;;4087827;28;20073;-44
2024/02/08 09:05:30;;;;;;;8.05;2.45;;;16.30;69.10;;;;;;4087118;28;20066;-49
2024/02/08 09:08:21;;;;;;;4.68;2.70;;;16.30;69.10;;;;;;4088046;28;20061;-50
2024/02/08 09:11:04;;;;;;;6.23;2.83;;;16.20;69.20;;;;;;4088891;28;20518;-51
2024/02/08 09:13:51;;;;;;;8.13;3.08;;;16.20;69.40;;;;;;4088606;28;20058;-52
2024/02/08 09:16:36;;;;;;;7.68;3.80;;;16.10;69.70;;;;;;4088831;28;20054;-52
2024/02/08 09:19:27;;;;;;;6.13;3.15;;;16.10;69.80;;;;;;4088617;28;20089;-51
2024/02/08 09:22:11;;;;;;;7.87;3.20;;;16.20;69.70;;;;;;4089109;28;20054;-49
2024/02/08 09:24:52;;;;;;;4.40;2.33;;;16.20;69.70;;;;;;4088166;28;20055;-49
2024/02/08 09:27:34;;;;;;;6.85;3.00;;;16.20;69.60;;;;;;4088384;28;20066;-50
2024/02/08 09:30:30;;;;;;;5.03;2.70;;;16.10;69.60;;;;;;4087936;28;20105;-50
2024/02/08 09:33:14;;;;;;;10.25;2.95;;;16.10;69.60;;;;;;4081746;28;20053;-53
2024/02/08 09:35:56;;;;;;;7.50;3.30;;;16.00;69.80;;;;;;4087730;28;20220;-51
2024/02/08 09:38:43;;;;;;;7.40;2.92;;;16.00;69.90;;;;;;4090736;28;20384;-50
2024/02/08 09:41:27;;;;;;;7.10;3.05;;;16.00;70.00;;;;;;4068769;28;20069;-49
2024/02/08 09:44:11;;;;;;;6.68;2.65;;;16.00;70.00;;;;;;4093501;28;20108;-50
2024/02/08 09:46:56;;;;;;;8.93;3.10;;;16.00;70.00;;;;;;4084822;28;20190;-49
2024/02/08 09:49:38;;;;;;;8.45;3.53;;;15.90;70.10;;;;;;4085788;28;20098;-49
2024/02/08 09:52:30;;;;;;;9.73;3.20;;;15.90;70.20;;;;;;4087420;28;20088;-52
2024/02/08 09:55:18;;;;;;;9.02;2.90;;;15.80;70.40;;;;;;4087604;28;20054;-48
2024/02/08 09:58:04;;;;;;;6.88;2.85;;;15.80;70.90;;;;;;4092508;28;20842;-51
2024/02/08 10:00:57;;;;;;;4.97;2.38;;;15.80;71.20;;;;;;4094736;28;20061;-60
2024/02/08 10:03:39;;;;;;;12.77;3.13;;;15.90;71.00;;;;;;4092350;28;20384;-48
2024/02/08 10:06:38;;;;;;;8.52;2.63;;;16.10;70.90;;;;;;4088105;28;20065;-47
2024/02/08 10:09:36;;;;;;;6.63;2.85;;;16.20;70.50;;;;;;4088197;28;20070;-44
2024/02/08 10:12:20;;;;;;;7.72;2.90;;;16.30;70.40;;;;;;4088429;28;20188;-44
2024/02/08 10:15:00;;;;;;;8.10;3.17;;;16.40;70.30;;;;;;4089817;28;20058;-44
2024/02/08 10:17:51;;;;;;;;;;;16.50;69.90;;;;;;4094293;28;20453;-45
2024/02/08 10:20:36;;;;;;;10.40;2.40;;;16.50;68.70;;;;;;4088582;28;19977;-46
2024/02/08 10:26:26;;;;;;;10.38;3.10;;;16.50;67.70;;;;;;4086613;28;20062;-46
2024/02/08 10:29:14;;;;;;;9.48;2.38;;;16.50;67.70;;;;;;4088228;28;21040;-45
2024/02/08 10:31:59;;;;;;;8.98;2.47;;;16.40;67.70;;;;;;4088799;28;21024;-52
2024/02/08 10:34:43;;;;;;;8.77;2.65;;;16.30;67.90;;;;;;4094908;28;20058;-51
2024/02/08 10:37:46;;;;;;;8.93;2.55;;;16.30;68.20;;;;;;4095471;28;20109;-50
2024/02/08 10:40:32;;;;;;;4.35;2.38;;;16.30;68.40;;;;;;4089366;28;20047;-44
2024/02/08 10:43:17;;;;;;;8.23;2.15;;;16.30;68.30;;;;;;4093745;28;20070;-47
2024/02/08 10:46:03;;;;;;;9.68;2.38;;;16.40;68.10;;;;;;4075647;28;20054;-46
2024/02/08 10:48:48;;;;;;;9.05;2.05;;;16.30;68.10;;;;;;4092067;28;20085;-45
2024/02/08 10:51:32;;;;;;;8.40;2.08;;;16.30;67.80;;;;;;4088464;28;20094;-45
2024/02/08 10:54:22;;;;;;;6.65;2.28;;;16.30;67.90;;;;;;4093458;28;20070;-45
2024/02/08 10:57:09;;;;;;;4.65;2.28;;;16.30;68.00;;;;;;4088383;28;20187;-46
2024/02/08 10:59:55;;;;;;;5.63;2.03;;;16.20;68.30;;;;;;4087828;28;20070;-49
2024/02/08 11:02:48;;;;;;;6.82;2.22;;;16.20;68.40;;;;;;4085490;28;20209;-45
2024/02/08 11:05:48;;;;;;;10.65;2.50;;;16.20;68.30;;;;;;4087071;28;20074;-45
2024/02/08 11:08:33;;;;;;;7.45;2.75;;;16.30;68.20;;;;;;4097722;28;20121;-46
2024/02/08 11:11:20;;;;;;;8.23;3.25;;;16.20;68.20;;;;;;4093212;28;20058;-46
2024/02/08 11:14:08;;;;;;;8.55;3.33;;;16.20;68.30;;;;;;4088100;28;20057;-45
2024/02/08 11:16:52;;;;;;;9.60;3.53;;;16.20;68.40;;;;;;4087827;28;20082;-46
2024/02/08 11:19:39;;;;;;;10.45;3.55;;;16.30;68.30;;;;;;4086136;28;20062;-45
2024/02/08 11:22:34;;;;;;;11.98;3.30;;;16.20;68.30;;;;;;4087187;28;20097;-45
2024/02/08 11:25:20;;;;;;;12.65;2.70;;;16.20;68.30;;;;;;4086505;28;20093;-45
2024/02/08 11:28:10;;;;;;;7.63;2.63;;;16.20;68.50;;;;;;4074892;28;20058;-47
2024/02/08 11:31:03;;;;;;;8.50;3.13;;;16.20;68.40;;;;;;4087939;28;20054;-45
2024/02/08 11:33:50;;;;;;;8.20;3.05;;;16.20;68.30;;;;;;4086242;28;20062;-47
2024/02/08 11:36:34;;;;;;;5.43;2.33;;;16.20;68.10;;;;;;4087456;28;20185;-54
2024/02/08 11:39:28;;;;;;;8.18;2.40;;;16.20;68.10;;;;;;4095222;28;20066;-52
2024/02/08 11:42:16;;;;;;;8.60;2.65;;;16.20;68.20;;;;;;4094298;28;20523;-53
2024/02/08 11:45:00;;;;;;;7.70;2.45;;;16.10;68.30;;;;;;4091525;28;20054;-54
2024/02/08 11:47:48;;;;;;;5.10;2.15;;;16.10;68.30;;;;;;4093737;28;20460;-54
2024/02/08 11:50:36;;;;;;;6.45;2.33;;;16.10;68.20;;;;;;4087795;28;20061;-48
2024/02/08 11:53:31;;;;;;;5.53;2.20;;;16.10;68.30;;;;;;4097950;28;20628;-50
2024/02/08 11:56:15;;;;;;;7.18;2.35;;;16.20;68.40;;;;;;4100212;28;20133;-55
2024/02/08 11:58:58;;;;;;;9.20;1.92;;;16.10;68.60;;;;;;4090342;28;20527;-55
2024/02/08 12:01:43;;;;;;;8.70;2.33;;;16.00;68.50;;;;;;4098376;28;20050;-54
2024/02/08 12:04:24;;;;;;;11.18;2.50;;;16.00;68.60;;;;;;4075496;28;20050;-54
2024/02/08 12:07:07;;;;;;;8.93;2.65;;;15.90;68.60;;;;;;4078004;28;20519;-47
2024/02/08 12:09:59;;;;;;;6.88;2.40;;;15.90;68.90;;;;;;4088884;28;20506;-47
2024/02/08 12:12:41;;;;;;;7.63;2.33;;;15.80;69.00;;;;;;4090285;28;20223;-47
2024/02/08 12:15:22;;;;;;;6.32;2.15;;;15.80;69.60;;;;;;4091475;28;20183;-48
2024/02/08 12:18:06;;;;;;;10.25;3.08;;;15.80;69.80;;;;;;4098665;28;20054;-51
2024/02/08 12:20:55;;;;;;;5.65;2.40;;;15.80;68.90;;;;;;4092971;28;20709;-52
2024/02/08 12:23:38;;;;;;;10.93;3.40;;;15.80;69.30;;;;;;4082141;28;20196;-52
2024/02/08 12:26:23;;;;;;;6.80;2.75;;;15.80;69.00;;;;;;4094319;28;20061;-51
2024/02/08 12:29:06;;;;;;;9.27;3.00;;;15.80;69.30;;;;;;4088186;28;20408;-51
2024/02/08 12:31:50;;;;;;;7.65;2.85;;;15.80;69.80;;;;;;4102030;28;20558;-52
2024/02/08 12:34:32;;;;;;;9.63;2.80;;;15.80;70.40;;;;;;4086348;28;20054;-54
2024/02/08 12:37:15;;;;;;;9.80;2.72;;;15.80;70.10;;;;;;4087578;28;20058;-52
2024/02/08 12:39:58;;;;;;;7.43;2.53;;;15.80;68.70;;;;;;4100887;28;20061;-52
2024/02/08 12:42:40;;;;;;;10.65;2.63;;;15.80;68.80;;;;;;4098837;28;20113;-52
2024/02/08 12:45:21;;;;;;;9.98;2.70;;;15.80;68.80;;;;;;4094866;28;20093;-54
2024/02/08 12:48:04;;;;;;;6.47;2.20;;;15.70;69.40;;;;;;4102386;28;20077;-55
2024/02/08 12:50:45;;;;;;;10.52;2.53;;;15.70;69.60;;;;;;4101001;28;20117;-55
2024/02/08 12:53:26;;;;;;;10.07;2.60;;;15.70;69.60;;;;;;4089117;28;20058;-46
2024/02/08 12:56:10;;;;;;;12.02;2.97;;;15.70;70.10;;;;;;4091183;28;20074;-46
2024/02/08 12:59:00;;;;;;;8.25;2.70;;;15.70;70.50;;;;;;4078488;28;20041;-46
2024/02/08 13:01:44;;;;;;;10.98;3.00;;;15.70;70.00;;;;;;4101387;28;20073;-47
2024/02/08 13:04:27;;;;;;;9.35;2.80;;;15.70;69.60;;;;;;4101627;28;20070;-47
2024/02/08 13:07:08;;;;;;;9.23;2.28;;;15.70;69.80;;;;;;4097473;28;20073;-49
2024/02/08 13:09:49;;;;;;;;;;;15.60;70.10;;;;;;4099606;28;20558;-49
2024/02/08 13:12:32;;;;;;;8.05;2.53;;;15.60;70.70;;;;;;4101024;28;20049;-48
2024/02/08 13:15:20;;;;;;;8.18;2.70;;;15.60;70.90;;;;;;4088981;28;20109;-50
2024/02/08 13:18:04;;;;;;;8.85;2.72;;;15.60;70.00;;;;;;4087778;28;20110;-49
2024/02/08 13:20:50;;;;;;;11.35;2.90;;;15.60;69.90;;;;;;4101552;28;20246;-46
2024/02/08 13:23:33;;;;;;;11.80;2.13;;;15.60;70.10;;;;;;4072181;28;20062;-54
2024/02/08 13:26:17;;;;;;;9.27;2.45;;;15.50;70.60;;;;;;4092910;28;20074;-54
2024/02/08 13:29:06;;;;;;;8.48;2.13;;;15.50;70.70;;;;;;4072778;28;20422;-46
2024/02/08 13:31:51;;;;;;;6.22;2.17;;;15.40;70.60;;;;;;4085906;28;20187;-52
2024/02/08 13:34:33;;;;;;;8.48;2.90;;;15.40;70.50;;;;;;4094524;28;20101;-53
2024/02/08 13:37:16;;;;;;;9.38;2.65;;;15.30;70.90;;;;;;4099454;28;20388;-49
2024/02/08 13:40:03;;;;;;;9.02;2.85;;;15.30;71.40;;;;;;4098624;28;20885;-48
2024/02/08 13:42:45;;;;;;;8.27;2.13;;;15.20;71.50;;;;;;4089161;28;20058;-47
2024/02/08 13:45:32;;;;;;;8.88;1.92;;;15.20;70.60;;;;;;4100185;28;20049;-47
2024/02/08 13:48:16;;;;;;;7.90;2.45;;;15.10;71.40;;;;;;4075412;28;20242;-46
2024/02/08 13:51:05;;;;;;;11.27;2.67;;;15.10;71.60;;;;;;4081376;28;20054;-51
2024/02/08 13:53:47;;;;;;;6.88;2.75;;;15.00;71.00;;;;;;4089986;28;20085;-54
2024/02/08 13:56:28;;;;;;;9.65;2.83;;;14.90;71.80;;;;;;4085006;28;20594;-50
2024/02/08 13:59:14;;;;;;;6.10;2.47;;;14.90;72.30;;;;;;4084366;28;20069;-53
2024/02/08 14:01:56;;;;;;;8.00;2.38;;;14.90;72.70;;;;;;4095911;28;20187;-45
2024/02/08 14:04:39;;;;;;;6.80;1.52;;;14.80;72.80;;;;;;4087436;28;20050;-45
2024/02/08 14:07:25;;;;;;;5.80;2.08;;;14.80;72.80;;;;;;4076345;28;20082;-45
2024/02/08 14:10:08;;;;;;;4.78;1.38;;;14.70;72.80;;;;;;4093074;28;20695;-47
2024/02/08 14:12:53;;;;;;;4.10;1.00;;;14.70;73.00;;;;;;4088494;28;20066;-45
2024/02/08 14:15:38;;;;;;;7.18;1.38;;;14.70;73.30;;;;;;4089283;28;20058;-46
2024/02/08 14:18:23;;;;;;;3.92;1.33;;;14.60;73.50;;;;;;4090840;28;20074;-44
2024/02/08 14:21:10;;;;;;;4.45;1.27;;;14.60;73.20;;;;;;4098799;28;20131;-47
2024/02/08 14:23:58;;;;;;;3.65;1.20;;;14.60;73.00;;;;;;4091196;28;20054;-47
2024/02/08 14:26:43;;;;;;;1.88;0.93;;;14.50;73.00;;;;;;4088617;28;20167;-54
2024/02/08 14:29:24;;;;;;;2.08;0.65;;;14.50;73.10;;;;;;4087934;28;20190;-53
2024/02/08 14:32:08;;;;;;;1.85;1.20;;;14.50;73.10;;;;;;4095843;28;20093;-51
2024/02/08 14:34:58;;;;;;;3.55;1.05;;;14.40;72.80;;;;;;4091795;28;20110;-52
2024/02/08 14:37:45;;;;;;;3.80;1.10;;;14.40;72.80;;;;;;4089142;28;20810;-51
2024/02/08 14:40:27;;;;;;;2.72;0.68;;;14.30;72.50;;;;;;4089293;28;20702;-45
2024/02/08 14:43:08;;;;;;;3.28;0.88;;;14.30;72.70;;;;;;4087885;28;20129;-51
2024/02/08 14:45:53;;;;;;;2.85;0.90;;;14.30;72.90;;;;;;4090010;28;20515;-52
2024/02/08 14:48:38;;;;;;;1.70;0.88;;;14.20;73.00;;;;;;4097763;28;20057;-47
2024/02/08 14:51:36;;;;;;;1.00;0.63;;;14.10;73.10;;;;;;4083511;28;20210;-51
2024/02/08 14:54:19;;;;;;;1.55;0.77;;;14.10;73.20;;;;;;4085523;28;20058;-54
2024/02/08 14:57:09;;;;;;;1.48;0.70;;;14.10;73.40;;;;;;4085504;28;20062;-52
2024/02/08 14:59:52;;;;;;;1.58;0.40;;;14.00;73.20;;;;;;4094777;28;20065;-55
2024/02/08 15:02:32;;;;;;;1.10;0.35;;;14.00;74.00;;;;;;4098585;28;20179;-46
2024/02/08 15:05:14;;;;;;;1.02;0.60;;;14.00;73.10;;;;;;4091162;28;20074;-46
2024/02/08 15:08:08;;;;;;;2.13;0.50;;;13.90;73.30;;;;;;4086948;28;20198;-45
2024/02/08 15:10:59;;;;;;;2.63;0.50;;;13.90;73.90;;;;;;4094459;28;21334;-47
2024/02/08 15:13:45;;;;;;;;;;;13.90;74.10;;;;;;4084118;28;20125;-46
2024/02/08 15:16:30;;;;;;;1.85;0.63;;;13.80;74.30;;;;;;4093993;28;20036;-44
2024/02/08 15:19:12;;;;;;;3.22;0.80;;;13.80;74.60;;;;;;4092438;28;20066;-46
2024/02/08 15:21:53;;;;;;;4.03;1.15;;;13.80;74.70;;;;;;4073490;28;20101;-47
2024/02/08 15:24:46;;;;;;;4.35;0.60;;;13.80;74.60;;;;;;4089475;28;20070;-46
2024/02/08 15:27:34;;;;;;;2.22;0.80;;;13.80;74.40;;;;;;4088267;28;20083;-46
2024/02/08 15:30:17;;;;;;;4.15;1.42;;;13.70;74.80;;;;;;4089539;28;20075;-46
2024/02/08 15:33:16;;;;;;;3.47;0.90;;;13.70;75.00;;;;;;4092151;28;20078;-50
2024/02/08 15:35:59;;;;;;;1.58;0.65;;;13.70;75.00;;;;;;4099184;28;20535;-50
2024/02/08 15:39:00;;;;;;;1.15;0.38;;;13.70;75.10;;;;;;4095276;28;20508;-54
2024/02/08 15:41:50;;;;;;;1.08;0.70;;;13.70;75.00;;;;;;4093418;28;20058;-54
2024/02/08 15:44:34;;;;;;;1.25;0.70;;;13.70;75.40;;;;;;4093547;28;20058;-53
2024/02/08 15:47:18;;;;;;;2.13;0.63;;;13.70;75.70;;;;;;4097273;28;20077;-54
2024/02/08 15:49:59;;;;;;;1.88;0.45;;;13.70;76.00;;;;;;4100803;28;20050;-54
2024/02/08 15:52:42;;;;;;;0.73;0.50;;;13.60;76.00;;;;;;4086900;28;20062;-47
2024/02/08 15:55:26;;;;;;;1.95;0.65;;;13.60;76.00;;;;;;4091179;28;20062;-45
2024/02/08 15:58:19;;;;;;;1.38;0.60;;;13.60;75.90;;;;;;4087219;28;20082;-44
2024/02/08 16:01:10;;;;;;;0.63;0.57;;;13.60;75.90;;;;;;4085231;28;20057;-45
2024/02/08 16:03:55;;;;;;;2.05;0.68;;;13.60;76.30;;;;;;4074907;28;20053;-45